createdAt,value
2024-01-03T00:01:07.462Z,11.40
2024-01-03T00:03:34.524Z,11.33
2024-01-03T00:06:04.130Z,11.27
2024-01-03T00:08:35.589Z,11.63
2024-01-03T00:11:04.037Z,12.00
2024-01-03T00:13:31.185Z,11.90
2024-01-03T00:16:01.035Z,11.33
2024-01-03T00:18:42.784Z,11.47
2024-01-03T00:21:11.804Z,11.40
2024-01-03T00:23:48.872Z,12.10
2024-01-03T00:26:16.732Z,11.77
2024-01-03T00:28:44.759Z,11.47
2024-01-03T00:31:27.767Z,11.90
2024-01-03T00:33:55.853Z,11.20
2024-01-03T00:36:23.010Z,12.23
2024-01-03T00:38:50.080Z,11.80
2024-01-03T00:41:19.642Z,12.40
2024-01-03T00:43:46.881Z,12.90
2024-01-03T00:46:14.246Z,12.57
2024-01-03T00:48:42.210Z,12.43
2024-01-03T00:51:09.730Z,12.80
2024-01-03T00:53:37.513Z,12.70
2024-01-03T00:56:05.412Z,12.87
2024-01-03T00:58:32.457Z,12.87
2024-01-03T01:00:59.790Z,12.60
2024-01-03T01:03:26.955Z,12.57
2024-01-03T01:05:54.350Z,12.10
2024-01-03T01:08:24.673Z,13.10
2024-01-03T01:10:51.670Z,13.23
2024-01-03T01:13:18.676Z,13.57
2024-01-03T01:15:46.263Z,14.40
2024-01-03T01:18:13.536Z,12.93
2024-01-03T01:20:40.885Z,14.23
2024-01-03T01:23:07.894Z,14.37
2024-01-03T01:25:35.081Z,14.10
2024-01-03T01:28:02.109Z,13.90
2024-01-03T01:30:29.166Z,15.13
2024-01-03T01:32:56.397Z,14.50
2024-01-03T01:35:24.159Z,13.60
2024-01-03T01:37:51.763Z,14.77
2024-01-03T01:40:18.811Z,14.73
2024-01-03T01:42:47.029Z,15.30
2024-01-03T01:45:15.062Z,15.20
2024-01-03T01:47:44.697Z,14.73
2024-01-03T01:50:12.137Z,16.10
2024-01-03T01:52:41.071Z,15.27
2024-01-03T01:55:10.200Z,14.40
2024-01-03T01:57:38.859Z,14.30
2024-01-03T02:00:08.389Z,14.77
2024-01-03T02:03:09.441Z,15.03
2024-01-03T02:06:01.860Z,15.63
2024-01-03T02:08:29.360Z,15.03
2024-01-03T02:10:56.389Z,15.40
2024-01-03T02:13:24.641Z,15.80
2024-01-03T02:15:52.861Z,15.07
2024-01-03T02:18:21.076Z,15.77
2024-01-03T02:20:49.032Z,15.00
2024-01-03T02:23:16.069Z,14.90
2024-01-03T02:25:43.159Z,15.37
2024-01-03T02:28:15.996Z,14.80
2024-01-03T02:30:46.380Z,14.70
2024-01-03T02:33:13.847Z,14.33
2024-01-03T02:35:41.272Z,14.33
2024-01-03T02:38:08.579Z,14.20
2024-01-03T02:40:35.840Z,15.13
2024-01-03T02:43:02.888Z,13.93
2024-01-03T02:45:31.208Z,13.57
2024-01-03T02:47:58.327Z,13.70
2024-01-03T02:50:26.032Z,13.33
2024-01-03T02:52:54.003Z,12.80
2024-01-03T02:55:22.277Z,13.20
2024-01-03T02:57:49.324Z,12.33
2024-01-03T03:00:16.695Z,11.93
2024-01-03T03:02:44.024Z,10.73
2024-01-03T03:05:14.111Z,10.47
2024-01-03T03:07:41.126Z,8.87
2024-01-03T03:10:11.705Z,6.97
2024-01-03T03:12:39.032Z,7.10
2024-01-03T03:15:07.012Z,6.10
2024-01-03T03:17:34.518Z,5.90
2024-01-03T03:20:01.517Z,5.00
2024-01-03T03:22:28.548Z,4.40
2024-01-03T03:24:55.559Z,4.47
2024-01-03T03:27:22.745Z,2.80
2024-01-03T03:29:51.297Z,2.87
2024-01-03T03:32:18.656Z,1.83
2024-01-03T03:34:45.710Z,1.90
2024-01-03T03:37:12.692Z,1.50
2024-01-03T03:39:39.757Z,1.60
2024-01-03T03:42:06.855Z,1.60
2024-01-03T03:44:34.969Z,1.50
2024-01-03T03:47:01.948Z,1.37
2024-01-03T03:49:29.054Z,1.30
2024-01-03T03:51:56.994Z,1.00
2024-01-03T03:54:23.953Z,0.70
2024-01-03T03:56:52.115Z,0.70
2024-01-03T03:59:20.045Z,0.60
2024-01-03T04:01:51.114Z,0.60
2024-01-03T04:04:21.853Z,0.60
2024-01-03T04:06:49.223Z,0.77
2024-01-03T04:09:16.302Z,0.60
2024-01-03T04:11:43.960Z,0.77
2024-01-03T04:14:12.137Z,0.87
2024-01-03T04:16:39.793Z,1.00
2024-01-03T04:19:06.914Z,1.20
2024-01-03T04:21:34.174Z,0.97
2024-01-03T04:24:01.261Z,0.70
2024-01-03T04:26:29.924Z,0.50
2024-01-03T04:28:57.231Z,0.50
2024-01-03T04:31:24.289Z,0.63
2024-01-03T04:33:51.412Z,0.70
2024-01-03T04:36:18.467Z,0.57
2024-01-03T04:38:45.669Z,0.67
2024-01-03T04:41:12.794Z,0.60
2024-01-03T04:43:40.366Z,0.70
2024-01-03T04:46:07.684Z,0.50
2024-01-03T04:48:35.094Z,0.60
2024-01-03T04:51:02.273Z,0.70
2024-01-03T04:53:31.118Z,0.80
2024-01-03T04:55:58.104Z,0.80
2024-01-03T04:58:25.079Z,1.13
2024-01-03T05:00:53.313Z,1.00
2024-01-03T05:03:22.249Z,1.10
2024-01-03T05:05:49.930Z,0.93
2024-01-03T05:08:16.943Z,0.90
2024-01-03T05:10:43.893Z,1.10
2024-01-03T05:13:11.018Z,1.10
2024-01-03T05:15:41.193Z,1.30
2024-01-03T05:18:08.763Z,1.10
2024-01-03T05:20:35.983Z,1.07
2024-01-03T05:23:03.125Z,1.10
2024-01-03T05:25:30.165Z,1.33
2024-01-03T05:27:57.131Z,1.37
2024-01-03T05:30:25.030Z,1.27
2024-01-03T05:32:54.359Z,1.23
2024-01-03T05:35:21.440Z,1.10
2024-01-03T05:37:48.908Z,1.23
2024-01-03T05:40:21.932Z,3.10
2024-01-03T05:42:48.948Z,1.60
2024-01-03T05:45:15.950Z,1.70
2024-01-03T05:47:42.980Z,1.30
2024-01-03T05:50:10.298Z,1.20
2024-01-03T05:52:37.405Z,1.30
2024-01-03T05:55:04.732Z,1.20
2024-01-03T05:57:31.804Z,0.90
2024-01-03T05:59:58.765Z,0.90
2024-01-03T06:02:25.842Z,1.10
2024-01-03T06:04:54.207Z,0.97
2024-01-03T06:07:23.607Z,1.10
2024-01-03T06:09:50.867Z,1.10
2024-01-03T06:12:17.915Z,1.00
2024-01-03T06:14:45.044Z,1.13
2024-01-03T06:17:14.888Z,1.20
2024-01-03T06:19:42.967Z,1.37
2024-01-03T06:22:10.066Z,1.40
2024-01-03T06:24:37.249Z,1.20
2024-01-03T06:27:04.781Z,1.20
2024-01-03T06:29:32.061Z,1.10
2024-01-03T06:31:59.189Z,1.20
2024-01-03T06:34:26.250Z,1.37
2024-01-03T06:36:53.325Z,1.37
2024-01-03T06:39:20.464Z,1.40
2024-01-03T06:41:48.981Z,1.40
2024-01-03T06:44:16.065Z,1.50
2024-01-03T06:46:46.029Z,1.40
2024-01-03T06:49:13.282Z,2.50
2024-01-03T06:51:40.408Z,1.77
2024-01-03T06:54:07.561Z,1.63
2024-01-03T06:56:34.657Z,1.43
2024-01-03T06:59:02.002Z,1.60
2024-01-03T07:01:28.910Z,1.40
2024-01-03T07:03:56.393Z,1.80
2024-01-03T07:06:24.118Z,1.50
2024-01-03T07:08:53.133Z,1.07
2024-01-03T07:11:21.716Z,1.30
2024-01-03T07:13:48.841Z,1.20
2024-01-03T07:16:17.161Z,1.40
2024-01-03T07:18:44.189Z,1.77
2024-01-03T07:21:12.530Z,1.60
2024-01-03T07:23:40.403Z,2.67
2024-01-03T07:26:07.527Z,6.90
2024-01-03T07:28:34.589Z,6.90
2024-01-03T07:31:02.341Z,7.00
2024-01-03T07:33:29.953Z,6.60
2024-01-03T07:35:57.180Z,4.13
2024-01-03T07:38:24.713Z,5.60
2024-01-03T07:40:54.769Z,2.43
2024-01-03T07:43:21.800Z,3.20
2024-01-03T07:45:49.038Z,2.07
2024-01-03T07:48:16.450Z,2.30
2024-01-03T07:50:44.033Z,1.80
2024-01-03T07:53:11.208Z,2.60
2024-01-03T07:55:41.440Z,1.80
2024-01-03T07:58:09.968Z,2.00
2024-01-03T08:00:37.208Z,1.40
2024-01-03T08:03:05.722Z,1.37
2024-01-03T08:05:32.932Z,1.33
2024-01-03T08:07:59.945Z,1.40
2024-01-03T08:10:27.250Z,1.17
2024-01-03T08:12:54.696Z,1.30
2024-01-03T08:15:22.322Z,1.03
2024-01-03T08:17:49.386Z,0.90
2024-01-03T08:20:16.747Z,1.10
2024-01-03T08:22:44.825Z,1.00
2024-01-03T08:25:11.948Z,0.70
2024-01-03T08:27:39.484Z,1.20
2024-01-03T08:30:08.118Z,0.90
2024-01-03T08:32:42.144Z,0.80
2024-01-03T08:35:10.213Z,0.83
2024-01-03T08:37:37.210Z,0.90
2024-01-03T08:40:04.840Z,0.70
2024-01-03T08:42:31.934Z,0.60
2024-01-03T08:44:59.623Z,0.80
2024-01-03T08:47:26.944Z,1.10
2024-01-03T08:49:54.229Z,0.93
2024-01-03T08:52:21.331Z,0.60
2024-01-03T08:54:48.405Z,0.67
2024-01-03T08:57:16.184Z,0.90
2024-01-03T08:59:43.270Z,1.00
2024-01-03T09:02:11.171Z,1.03
2024-01-03T09:04:38.242Z,0.90
2024-01-03T09:07:05.473Z,0.80
2024-01-03T09:09:33.648Z,0.80
2024-01-03T09:12:00.891Z,1.23
2024-01-03T09:14:28.047Z,1.40
2024-01-03T09:16:55.183Z,0.90
2024-01-03T09:19:22.821Z,1.00
2024-01-03T09:21:49.941Z,0.60
2024-01-03T09:24:19.735Z,0.80
2024-01-03T09:26:48.392Z,0.80
2024-01-03T09:29:15.472Z,0.60
2024-01-03T09:31:44.530Z,0.77
2024-01-03T09:34:13.478Z,0.93
2024-01-03T09:36:40.800Z,0.80
2024-01-03T09:39:09.962Z,1.10
2024-01-03T09:41:38.377Z,0.80
2024-01-03T09:44:08.537Z,0.80
2024-01-03T09:46:36.045Z,0.90
2024-01-03T09:49:03.961Z,0.87
2024-01-03T09:51:32.497Z,1.80
2024-01-03T09:54:00.873Z,1.60
2024-01-03T09:56:28.253Z,1.10
2024-01-03T09:58:55.269Z,0.67
2024-01-03T10:01:22.484Z,0.67
2024-01-03T10:03:49.677Z,1.07
2024-01-03T10:06:21.240Z,1.00
2024-01-03T10:09:16.040Z,0.80
2024-01-03T10:11:43.276Z,0.90
2024-01-03T10:14:23.251Z,0.73
2024-01-03T10:16:50.647Z,1.50
2024-01-03T10:19:20.285Z,0.83
2024-01-03T10:21:53.431Z,0.87
2024-01-03T10:24:27.242Z,0.70
2024-01-03T10:26:56.166Z,0.63
2024-01-03T10:29:26.423Z,0.60
2024-01-03T10:31:53.500Z,0.60
2024-01-03T10:34:26.279Z,0.60
2024-01-03T10:36:55.483Z,0.40
2024-01-03T10:39:23.449Z,0.50
2024-01-03T10:41:52.092Z,0.60
2024-01-03T10:44:20.912Z,0.40
2024-01-03T10:46:52.271Z,0.50
2024-01-03T10:49:20.665Z,0.50
2024-01-03T10:51:59.126Z,0.47
2024-01-03T10:54:29.133Z,0.50
2024-01-03T10:56:56.193Z,0.90
2024-01-03T10:59:39.647Z,0.40
2024-01-03T11:02:25.444Z,0.40
2024-01-03T11:05:03.550Z,0.60
2024-01-03T11:07:45.654Z,0.40
2024-01-03T11:10:52.766Z,0.60
2024-01-03T11:13:31.296Z,0.50
2024-01-03T11:15:59.874Z,0.50
2024-01-03T11:18:43.771Z,0.43
2024-01-03T11:21:31.712Z,0.40
2024-01-03T11:23:59.423Z,0.30
2024-01-03T11:26:57.162Z,0.63
2024-01-03T11:29:42.635Z,0.40
2024-01-03T11:32:13.724Z,0.60
2024-01-03T11:34:52.035Z,0.70
2024-01-03T11:37:20.065Z,0.50
2024-01-03T11:39:52.278Z,0.30
2024-01-03T11:42:36.573Z,0.50
2024-01-03T11:45:15.503Z,0.60
2024-01-03T11:47:45.389Z,0.80
2024-01-03T11:50:16.959Z,1.10
2024-01-03T11:52:48.053Z,0.80
2024-01-03T11:55:19.810Z,0.97
2024-01-03T11:57:48.763Z,0.70
2024-01-03T12:00:17.281Z,0.60
2024-01-03T12:02:50.763Z,0.80
2024-01-03T12:05:18.876Z,0.77
2024-01-03T12:07:48.698Z,0.67
2024-01-03T12:10:17.564Z,0.60
2024-01-03T12:12:46.346Z,0.50
2024-01-03T12:18:09.582Z,0.60
2024-01-03T12:20:37.903Z,2.33
2024-01-03T12:23:17.330Z,1.20
2024-01-03T12:25:44.830Z,1.30
2024-01-03T12:28:18.973Z,1.00
2024-01-03T12:30:46.100Z,0.83
2024-01-03T12:33:15.600Z,1.60
2024-01-03T12:35:48.767Z,1.10
2024-01-03T12:38:16.161Z,1.00
2024-01-03T12:40:47.085Z,1.00
2024-01-03T12:43:18.247Z,0.67
2024-01-03T12:45:47.510Z,0.50
2024-01-03T12:48:15.376Z,0.50
2024-01-03T12:50:43.713Z,0.53
2024-01-03T12:53:11.227Z,0.90
2024-01-03T12:55:38.377Z,0.87
2024-01-03T12:58:05.620Z,1.00
2024-01-03T13:00:32.626Z,0.90
2024-01-03T13:03:00.390Z,1.20
2024-01-03T13:05:27.666Z,0.90
2024-01-03T13:07:54.917Z,1.87
2024-01-03T13:10:22.302Z,0.80
2024-01-03T13:12:51.049Z,0.80
2024-01-03T13:15:18.357Z,1.23
2024-01-03T13:17:45.731Z,1.00
2024-01-03T13:20:14.444Z,1.00
2024-01-03T13:22:42.139Z,0.90
2024-01-03T13:25:09.339Z,1.50
2024-01-03T13:27:36.369Z,16.93
2024-01-03T13:30:04.610Z,27.93
2024-01-03T13:32:31.744Z,5.20
2024-01-03T13:35:00.618Z,4.80
2024-01-03T13:37:27.730Z,4.20
2024-01-03T13:39:54.824Z,1.30
2024-01-03T13:42:22.030Z,1.40
2024-01-03T13:44:49.183Z,1.23
2024-01-03T13:47:16.248Z,0.80
2024-01-03T13:49:43.455Z,0.60
2024-01-03T13:52:10.508Z,1.00
2024-01-03T13:54:38.950Z,0.80
2024-01-03T13:57:05.944Z,1.40
2024-01-03T13:59:34.132Z,14.90
2024-01-03T14:02:01.308Z,18.43
2024-01-03T14:04:28.372Z,7.40
2024-01-03T14:06:56.018Z,0.90
2024-01-03T14:09:24.007Z,0.83
2024-01-03T14:11:52.704Z,0.67
2024-01-03T14:14:19.748Z,0.63
2024-01-03T14:16:48.361Z,0.80
2024-01-03T14:19:16.239Z,0.67
2024-01-03T14:21:51.649Z,0.90
2024-01-03T14:24:19.234Z,0.73
2024-01-03T14:26:46.572Z,0.80
2024-01-03T14:29:13.750Z,0.87
2024-01-03T14:31:43.709Z,0.90
2024-01-03T14:34:11.599Z,1.07
2024-01-03T14:36:38.927Z,0.90
2024-01-03T14:39:09.691Z,1.00
2024-01-03T14:41:37.561Z,1.00
2024-01-03T14:44:11.491Z,0.70
2024-01-03T14:46:39.370Z,0.90
2024-01-03T14:49:06.455Z,0.70
2024-01-03T14:51:36.452Z,0.80
2024-01-03T14:54:04.592Z,1.10
2024-01-03T14:56:32.255Z,1.10
2024-01-03T14:58:59.618Z,0.80
2024-01-03T15:01:28.127Z,1.10
2024-01-03T15:03:55.307Z,1.03
2024-01-03T15:06:23.261Z,0.80
2024-01-03T15:08:51.166Z,0.70
2024-01-03T15:11:18.247Z,0.70
2024-01-03T15:13:46.685Z,0.90
2024-01-03T15:16:13.662Z,8.70
2024-01-03T15:18:40.829Z,2.80
2024-01-03T15:21:08.011Z,6.47
2024-01-03T15:23:36.185Z,3.10
2024-01-03T15:26:04.903Z,1.40
2024-01-03T15:28:31.944Z,1.10
2024-01-03T15:30:58.899Z,1.30
2024-01-03T15:33:29.536Z,0.90
2024-01-03T15:35:56.602Z,1.00
2024-01-03T15:38:25.273Z,1.30
2024-01-03T15:40:53.190Z,1.10
2024-01-03T15:43:20.197Z,0.87
2024-01-03T15:45:47.489Z,1.00
2024-01-03T15:48:15.149Z,9.27
2024-01-03T15:50:42.462Z,8.27
2024-01-03T15:53:10.606Z,10.40
2024-01-03T15:55:38.781Z,3.60
2024-01-03T15:58:06.004Z,3.80
2024-01-03T16:00:33.120Z,1.70
2024-01-03T16:03:00.244Z,2.50
2024-01-03T16:05:27.379Z,2.37
2024-01-03T16:07:54.426Z,1.30
2024-01-03T16:10:21.466Z,1.77
2024-01-03T16:12:49.017Z,1.90
2024-01-03T16:15:16.565Z,2.30
2024-01-03T16:17:44.192Z,1.70
2024-01-03T16:20:13.337Z,2.00
2024-01-03T16:22:40.754Z,2.90
2024-01-03T16:25:12.549Z,3.07
2024-01-03T16:27:46.303Z,3.00
2024-01-03T16:30:15.476Z,3.90
2024-01-03T16:32:43.065Z,4.30
2024-01-03T16:35:15.241Z,5.57
2024-01-03T16:37:43.595Z,4.50
2024-01-03T16:40:15.605Z,3.60
2024-01-03T16:42:43.059Z,4.23
2024-01-03T16:45:10.603Z,3.47
2024-01-03T16:47:40.103Z,3.20
2024-01-03T16:50:10.492Z,2.93
2024-01-03T16:52:42.469Z,3.00
2024-01-03T16:55:09.609Z,3.40
2024-01-03T16:57:36.674Z,4.23
2024-01-03T17:00:05.793Z,4.03
2024-01-03T17:02:33.103Z,3.90
2024-01-03T17:05:00.830Z,3.40
2024-01-03T17:07:29.167Z,3.73
2024-01-03T17:09:59.711Z,6.17
2024-01-03T17:12:26.771Z,4.50
2024-01-03T17:14:54.259Z,4.33
2024-01-03T17:17:21.611Z,3.87
2024-01-03T17:19:50.281Z,3.27
2024-01-03T17:22:18.204Z,3.67
2024-01-03T17:24:45.291Z,3.50
2024-01-03T17:27:15.289Z,3.40
2024-01-03T17:29:42.305Z,3.13
2024-01-03T17:32:10.254Z,3.20
2024-01-03T17:34:37.508Z,3.50
2024-01-03T17:37:07.977Z,3.23
2024-01-03T17:39:34.924Z,3.60
2024-01-03T17:42:02.424Z,4.00
2024-01-03T17:44:31.148Z,3.53
2024-01-03T17:46:58.228Z,3.80
2024-01-03T17:49:25.492Z,4.20
2024-01-03T17:51:52.570Z,4.77
2024-01-03T17:54:19.871Z,4.83
2024-01-03T17:56:46.978Z,4.90
2024-01-03T17:59:15.150Z,4.43
2024-01-03T18:01:49.736Z,5.13
2024-01-03T18:04:17.143Z,5.40
2024-01-03T18:06:45.327Z,5.07
2024-01-03T18:09:14.832Z,4.07
2024-01-03T18:11:42.561Z,4.63
2024-01-03T18:14:12.754Z,4.60
2024-01-03T18:16:39.743Z,4.20
2024-01-03T18:19:06.872Z,4.50
2024-01-03T18:21:34.088Z,4.43
2024-01-03T18:24:08.118Z,5.47
2024-01-03T18:26:38.432Z,3.93
2024-01-03T18:29:06.364Z,3.87
2024-01-03T18:31:33.441Z,7.20
2024-01-03T18:34:02.946Z,6.33
2024-01-03T18:36:30.258Z,9.30
2024-01-03T18:38:59.011Z,9.30
2024-01-03T18:41:27.191Z,8.43
2024-01-03T18:43:54.280Z,10.03
2024-01-03T18:46:21.267Z,9.10
2024-01-03T18:48:49.205Z,9.03
2024-01-03T18:51:16.926Z,9.30
2024-01-03T18:53:44.178Z,9.40
2024-01-03T18:56:11.790Z,9.03
2024-01-03T18:58:38.909Z,9.00
2024-01-03T19:01:06.918Z,9.67
2024-01-03T19:07:19.155Z,9.60
2024-01-03T19:09:46.641Z,15.27
2024-01-03T19:12:14.390Z,18.27
2024-01-03T19:14:41.580Z,15.93
2024-01-03T19:17:12.298Z,12.90
2024-01-03T19:19:39.992Z,11.77
2024-01-03T19:22:07.163Z,10.73
2024-01-03T19:24:34.928Z,10.53
2024-01-03T19:27:03.276Z,9.43
2024-01-03T19:29:30.497Z,9.50
2024-01-03T19:31:57.850Z,8.70
2024-01-03T19:34:25.485Z,7.77
2024-01-03T19:36:52.640Z,7.83
2024-01-03T19:39:19.750Z,7.87
2024-01-03T19:41:46.858Z,7.67
2024-01-03T19:44:17.672Z,7.50
2024-01-03T19:46:44.930Z,7.00
2024-01-03T19:49:13.132Z,8.17
2024-01-03T19:51:41.094Z,7.93
2024-01-03T19:54:11.490Z,8.33
2024-01-03T19:56:43.385Z,8.90
2024-01-03T19:59:10.773Z,7.67
2024-01-03T20:01:38.605Z,7.67
2024-01-03T20:04:05.769Z,6.73
2024-01-03T20:06:33.093Z,6.87
2024-01-03T20:09:02.716Z,7.20
2024-01-03T20:11:29.909Z,7.23
2024-01-03T20:13:57.381Z,6.97
2024-01-03T20:16:24.455Z,6.13
2024-01-03T20:18:52.031Z,5.27
2024-01-03T20:21:19.269Z,5.57
2024-01-03T20:23:49.400Z,5.60
2024-01-03T20:26:20.953Z,5.27
2024-01-03T20:28:48.176Z,5.97
2024-01-03T20:31:23.015Z,6.23
2024-01-03T20:33:52.018Z,6.87
2024-01-03T20:36:21.949Z,8.00
2024-01-03T20:38:50.159Z,7.60
2024-01-03T20:41:23.682Z,7.33
2024-01-03T20:43:50.999Z,6.97
2024-01-03T20:46:18.474Z,6.80
2024-01-03T20:48:45.649Z,6.17
2024-01-03T20:51:21.952Z,6.00
2024-01-03T20:53:49.283Z,6.43
2024-01-03T20:56:16.866Z,6.57
2024-01-03T20:58:45.418Z,6.40
2024-01-03T21:01:13.065Z,6.37
2024-01-03T21:03:43.749Z,6.80
2024-01-03T21:06:13.951Z,7.60
2024-01-03T21:08:41.296Z,7.70
2024-01-03T21:11:08.997Z,7.80
2024-01-03T21:13:36.590Z,7.50
2024-01-03T21:16:03.981Z,8.03
2024-01-03T21:18:31.204Z,7.77
2024-01-03T21:20:58.928Z,8.33
2024-01-03T21:23:35.262Z,8.00
2024-01-03T21:26:12.758Z,8.17
2024-01-03T21:28:39.841Z,8.13
2024-01-03T21:31:10.489Z,8.23
2024-01-03T21:33:38.092Z,7.70
2024-01-03T21:36:05.863Z,8.00
2024-01-03T21:38:34.342Z,7.07
2024-01-03T21:41:02.580Z,7.77
2024-01-03T21:43:29.755Z,7.60
2024-01-03T21:45:57.460Z,9.00
2024-01-03T21:48:24.960Z,8.53
2024-01-03T21:50:52.126Z,7.07
2024-01-03T21:53:19.401Z,6.67
2024-01-03T21:55:46.577Z,5.97
2024-01-03T21:58:13.749Z,5.77
2024-01-03T22:00:40.894Z,5.67
2024-01-03T22:03:08.462Z,6.30
2024-01-03T22:05:35.851Z,6.63
2024-01-03T22:08:07.378Z,6.80
2024-01-03T22:10:37.581Z,7.60
2024-01-03T22:13:04.970Z,8.23
2024-01-03T22:15:31.899Z,8.53
2024-01-03T22:17:59.131Z,8.63
2024-01-03T22:20:27.306Z,8.00
2024-01-03T22:22:54.595Z,7.60
2024-01-03T22:25:21.688Z,7.70
2024-01-03T22:27:49.790Z,7.83
2024-01-03T22:30:18.950Z,7.57
2024-01-03T22:32:46.620Z,7.73
2024-01-03T22:35:13.739Z,8.30
2024-01-03T22:37:40.710Z,7.13
2024-01-03T22:40:10.932Z,7.43
2024-01-03T22:42:38.033Z,7.07
2024-01-03T22:45:06.142Z,6.53
2024-01-03T22:47:33.413Z,6.90
2024-01-03T22:50:00.768Z,7.10
2024-01-03T22:52:28.017Z,7.97
2024-01-03T22:54:55.025Z,7.00
2024-01-03T22:57:23.321Z,7.57
2024-01-03T22:59:50.400Z,7.63
2024-01-03T23:02:17.565Z,8.03
2024-01-03T23:04:44.482Z,7.93
2024-01-03T23:07:13.187Z,8.50
2024-01-03T23:09:40.832Z,8.10
2024-01-03T23:12:08.044Z,7.83
2024-01-03T23:14:35.174Z,6.17
2024-01-03T23:17:10.665Z,6.57
2024-01-03T23:19:45.469Z,6.97
2024-01-03T23:22:12.778Z,6.30
2024-01-03T23:24:40.475Z,6.13
2024-01-03T23:27:07.688Z,5.57
2024-01-03T23:29:34.734Z,5.20
2024-01-03T23:32:01.766Z,5.27
2024-01-03T23:34:29.842Z,5.30
2024-01-03T23:36:56.960Z,4.87
2024-01-03T23:39:24.679Z,5.13
2024-01-03T23:41:51.871Z,4.83
2024-01-03T23:44:19.033Z,3.93
2024-01-03T23:46:46.017Z,3.67
2024-01-03T23:49:13.742Z,4.17
2024-01-03T23:51:43.692Z,3.60
2024-01-03T23:54:10.998Z,3.93
2024-01-03T23:56:38.120Z,3.70
2024-01-03T23:59:05.216Z,3.30
